createdAt,value
2018-09-27T00:00:37.821Z,1009.84
2018-09-27T00:01:37.960Z,1009.85
2018-09-27T00:02:38.499Z,1009.85
2018-09-27T00:03:38.296Z,1009.83
2018-09-27T00:04:38.463Z,1009.84
2018-09-27T00:05:38.617Z,1009.79
2018-09-27T00:06:38.775Z,1009.75
2018-09-27T00:07:38.935Z,1009.71
2018-09-27T00:08:39.101Z,1009.70
2018-09-27T00:09:39.254Z,1009.69
2018-09-27T00:10:39.425Z,1009.72
2018-09-27T00:11:39.592Z,1009.72
2018-09-27T00:12:39.751Z,1009.74
2018-09-27T00:13:39.913Z,1009.72
2018-09-27T00:16:39.469Z,1009.62
2018-09-27T00:17:39.631Z,1009.64
2018-09-27T00:18:39.797Z,1009.67
2018-09-27T00:19:40.039Z,1009.71
2018-09-27T00:20:40.142Z,1009.73
2018-09-27T00:21:40.300Z,1009.69
2018-09-27T00:22:47.651Z,1009.71
2018-09-27T00:23:40.554Z,1009.74
2018-09-27T00:24:40.735Z,1009.77
2018-09-27T00:25:40.916Z,1009.79
2018-09-27T00:26:41.069Z,1009.79
2018-09-27T00:27:41.234Z,1009.78
2018-09-27T00:28:41.400Z,1009.76
2018-09-27T00:29:41.562Z,1009.79
2018-09-27T00:30:41.708Z,1009.77
2018-09-27T00:31:41.866Z,1009.76
2018-09-27T00:32:42.030Z,1009.81
2018-09-27T00:33:42.192Z,1009.77
2018-09-27T00:34:42.382Z,1009.78
2018-09-27T00:35:42.535Z,1009.80
2018-09-27T00:36:42.709Z,1009.82
2018-09-27T00:39:25.018Z,1009.82
2018-09-27T00:40:25.056Z,1009.81
2018-09-27T00:41:25.229Z,1009.80
2018-09-27T00:42:32.850Z,1009.80
2018-09-27T00:43:25.507Z,1009.80
2018-09-27T00:44:25.666Z,1009.79
2018-09-27T00:46:57.438Z,1009.77
2018-09-27T00:47:57.591Z,1009.76
2018-09-27T00:48:57.767Z,1009.72
2018-09-27T00:49:57.935Z,1009.74
2018-09-27T00:50:58.094Z,1009.69
2018-09-27T00:51:58.248Z,1009.70
2018-09-27T00:52:58.420Z,1009.72
2018-09-27T00:53:58.581Z,1009.77
2018-09-27T00:54:58.752Z,1009.73
2018-09-27T00:55:58.902Z,1009.75
2018-09-27T00:56:59.090Z,1009.78
2018-09-27T00:57:59.251Z,1009.68
2018-09-27T00:58:59.415Z,1009.68
2018-09-27T00:59:59.574Z,1009.67
2018-09-27T01:00:59.737Z,1009.68
2018-09-27T01:03:42.289Z,1009.68
2018-09-27T01:04:42.449Z,1009.71
2018-09-27T01:05:42.641Z,1009.73
2018-09-27T01:06:42.827Z,1009.74
2018-09-27T01:07:42.959Z,1009.69
2018-09-27T01:08:43.119Z,1009.66
2018-09-27T01:09:43.272Z,1009.65
2018-09-27T01:10:43.448Z,1009.68
2018-09-27T01:11:43.621Z,1009.63
2018-09-27T01:12:43.789Z,1009.63
2018-09-27T01:13:43.960Z,1009.61
2018-09-27T01:14:44.174Z,1009.59
2018-09-27T01:15:44.218Z,1009.57
2018-09-27T01:16:44.379Z,1009.59
2018-09-27T01:19:16.703Z,1009.58
2018-09-27T01:20:16.757Z,1009.57
2018-09-27T01:21:16.931Z,1009.50
2018-09-27T01:22:24.537Z,1009.50
2018-09-27T01:23:17.191Z,1009.50
2018-09-27T01:24:17.352Z,1009.50
2018-09-27T01:25:17.510Z,1009.56
2018-09-27T01:26:17.669Z,1009.62
2018-09-27T01:27:17.840Z,1009.61
2018-09-27T01:28:17.998Z,1009.53
2018-09-27T01:29:18.188Z,1009.49
2018-09-27T01:30:18.349Z,1009.46
2018-09-27T01:31:18.532Z,1009.42
2018-09-27T01:32:18.705Z,1009.48
2018-09-27T01:33:18.862Z,1009.49
2018-09-27T01:34:19.042Z,1009.55
2018-09-27T01:35:19.210Z,1009.57
2018-09-27T01:36:19.371Z,1009.57
2018-09-27T01:39:01.636Z,1009.54
2018-09-27T01:40:01.788Z,1009.56
2018-09-27T01:41:09.128Z,1009.54
2018-09-27T01:42:02.168Z,1009.59
2018-09-27T01:43:02.356Z,1009.58
2018-09-27T01:45:34.134Z,1009.51
2018-09-27T01:46:34.291Z,1009.48
2018-09-27T01:47:34.478Z,1009.49
2018-09-27T01:48:34.699Z,1009.52
2018-09-27T01:49:34.812Z,1009.52
2018-09-27T01:50:34.967Z,1009.51
2018-09-27T01:51:35.130Z,1009.54
2018-09-27T01:52:35.292Z,1009.54
2018-09-27T01:53:35.459Z,1009.50
2018-09-27T01:54:35.621Z,1009.48
2018-09-27T01:55:35.793Z,1009.45
2018-09-27T01:56:36.068Z,1009.47
2018-09-27T01:57:36.069Z,1009.50
2018-09-27T01:58:36.231Z,1009.56
2018-09-27T01:59:36.397Z,1009.56
2018-09-27T02:00:44.241Z,1009.57
2018-09-27T02:01:36.769Z,1009.55
2018-09-27T02:02:36.932Z,1009.50
2018-09-27T02:03:37.094Z,1009.50
2018-09-27T02:04:37.256Z,1009.45
2018-09-27T02:05:37.413Z,1009.45
2018-09-27T02:06:45.065Z,1009.43
2018-09-27T02:07:37.720Z,1009.43
2018-09-27T02:08:37.887Z,1009.44
2018-09-27T02:09:38.045Z,1009.45
2018-09-27T02:10:38.210Z,1009.44
2018-09-27T02:11:38.373Z,1009.45
2018-09-27T02:12:38.537Z,1009.44
2018-09-27T02:13:38.690Z,1009.42
2018-09-27T02:14:38.853Z,1009.38
2018-09-27T02:15:39.021Z,1009.33
2018-09-27T02:16:40.136Z,1009.36
2018-09-27T02:17:39.334Z,1009.35
2018-09-27T02:18:39.498Z,1009.35
2018-09-27T02:19:39.668Z,1009.39
2018-09-27T02:20:39.823Z,1009.37
2018-09-27T02:23:12.068Z,1009.37
2018-09-27T02:24:12.233Z,1009.33
2018-09-27T02:25:13.107Z,1009.36
2018-09-27T02:26:12.513Z,1009.34
2018-09-27T02:27:12.800Z,1009.29
2018-09-27T02:28:12.846Z,1009.27
2018-09-27T02:29:12.974Z,1009.31
2018-09-27T02:30:13.146Z,1009.28
2018-09-27T02:31:13.306Z,1009.25
2018-09-27T02:32:13.461Z,1009.25
2018-09-27T02:33:13.631Z,1009.24
2018-09-27T02:34:13.794Z,1009.20
2018-09-27T02:35:13.956Z,1009.17
2018-09-27T02:36:14.118Z,1009.15
2018-09-27T02:37:14.283Z,1009.22
2018-09-27T02:39:56.530Z,1009.25
2018-09-27T02:40:56.699Z,1009.19
2018-09-27T02:41:56.867Z,1009.18
2018-09-27T02:42:57.016Z,1009.24
2018-09-27T02:43:57.199Z,1009.25
2018-09-27T02:44:57.373Z,1009.24
2018-09-27T02:46:05.468Z,1009.19
2018-09-27T02:46:57.617Z,1009.24
2018-09-27T02:47:57.782Z,1009.24
2018-09-27T02:48:58.009Z,1009.19
2018-09-27T02:49:58.101Z,1009.16
2018-09-27T02:50:58.270Z,1009.15
2018-09-27T02:51:58.425Z,1009.14
2018-09-27T02:52:58.577Z,1009.14
2018-09-27T02:54:01.595Z,1009.14
2018-09-27T02:54:58.876Z,1009.12
2018-09-27T02:55:59.039Z,1009.12
2018-09-27T02:56:59.207Z,1009.10
2018-09-27T02:57:59.392Z,1009.09
2018-09-27T02:58:59.559Z,1009.12
2018-09-27T02:59:59.721Z,1009.12
2018-09-27T03:00:59.882Z,1009.09
2018-09-27T03:03:42.446Z,1009.13
2018-09-27T03:04:42.608Z,1009.12
2018-09-27T03:05:42.769Z,1009.08
2018-09-27T03:06:42.931Z,1009.07
2018-09-27T03:07:43.098Z,1009.12
2018-09-27T03:08:43.257Z,1009.13
2018-09-27T03:09:43.409Z,1009.18
2018-09-27T03:10:43.572Z,1009.11
2018-09-27T03:11:44.672Z,1009.09
2018-09-27T03:12:43.837Z,1009.19
2018-09-27T03:13:44.027Z,1009.14
2018-09-27T03:14:44.167Z,1009.14
2018-09-27T03:15:44.335Z,1009.09
2018-09-27T03:16:44.481Z,1009.05
2018-09-27T03:17:44.659Z,1009.02
2018-09-27T03:20:17.209Z,1009.01
2018-09-27T03:21:17.378Z,1008.96
2018-09-27T03:22:17.539Z,1008.98
2018-09-27T03:23:17.715Z,1008.98
2018-09-27T03:24:17.871Z,1008.98
2018-09-27T03:25:18.017Z,1009.02
2018-09-27T03:26:18.191Z,1009.05
2018-09-27T03:27:18.358Z,1009.08
2018-09-27T03:28:18.518Z,1009.00
2018-09-27T03:29:18.684Z,1009.00
2018-09-27T03:30:18.861Z,1009.03
2018-09-27T03:31:19.055Z,1008.96
2018-09-27T03:32:19.208Z,1008.96
2018-09-27T03:33:19.371Z,1008.94
2018-09-27T03:34:19.536Z,1008.89
2018-09-27T03:37:02.077Z,1008.85
2018-09-27T03:38:02.241Z,1008.88
2018-09-27T03:39:02.400Z,1008.93
2018-09-27T03:40:02.572Z,1008.88
2018-09-27T03:41:02.725Z,1008.96
2018-09-27T03:42:02.877Z,1008.92
2018-09-27T03:43:03.047Z,1008.87
2018-09-27T03:45:34.815Z,1008.87
2018-09-27T03:46:34.964Z,1008.82
2018-09-27T03:47:35.131Z,1008.82
2018-09-27T03:48:42.945Z,1008.82
2018-09-27T03:49:35.478Z,1008.82
2018-09-27T03:50:35.661Z,1008.81
2018-09-27T03:51:35.836Z,1008.87
2018-09-27T03:52:35.985Z,1008.86
2018-09-27T03:53:36.141Z,1008.87
2018-09-27T03:54:36.303Z,1008.90
2018-09-27T03:55:36.474Z,1008.86
2018-09-27T03:56:36.635Z,1008.87
2018-09-27T03:57:36.786Z,1008.85
2018-09-27T03:58:36.956Z,1008.83
2018-09-27T04:01:20.735Z,1008.79
2018-09-27T04:02:20.396Z,1008.75
2018-09-27T04:03:20.657Z,1008.75
2018-09-27T04:04:20.726Z,1008.77
2018-09-27T04:05:20.889Z,1008.74
2018-09-27T04:06:29.027Z,1008.72
2018-09-27T04:07:21.182Z,1008.73
2018-09-27T04:08:21.347Z,1008.73
2018-09-27T04:09:22.253Z,1008.74
2018-09-27T04:10:21.663Z,1008.76
2018-09-27T04:11:21.815Z,1008.72
2018-09-27T04:12:21.987Z,1008.74
2018-09-27T04:13:22.136Z,1008.74
2018-09-27T04:14:22.298Z,1008.73
2018-09-27T04:15:22.455Z,1008.75
2018-09-27T04:16:22.616Z,1008.74
2018-09-27T04:19:04.875Z,1008.78
2018-09-27T04:20:05.045Z,1008.80
2018-09-27T04:21:05.197Z,1008.80
2018-09-27T04:22:05.369Z,1008.84
2018-09-27T04:23:05.529Z,1008.81
2018-09-27T04:24:05.703Z,1008.83
2018-09-27T04:25:05.854Z,1008.79
2018-09-27T04:26:06.018Z,1008.82
2018-09-27T04:27:06.179Z,1008.77
2018-09-27T04:28:06.338Z,1008.81
2018-09-27T04:29:06.561Z,1008.75
2018-09-27T04:30:06.728Z,1008.85
2018-09-27T04:31:06.892Z,1008.81
2018-09-27T04:32:07.047Z,1008.81
2018-09-27T04:33:07.229Z,1008.82
2018-09-27T04:35:49.495Z,1008.75
2018-09-27T04:36:49.659Z,1008.71
2018-09-27T04:37:49.826Z,1008.65
2018-09-27T04:38:49.980Z,1008.62
2018-09-27T04:39:50.154Z,1008.66
2018-09-27T04:40:50.458Z,1008.62
2018-09-27T04:41:50.403Z,1008.64
2018-09-27T04:42:50.564Z,1008.69
2018-09-27T04:43:50.726Z,1008.71
2018-09-27T04:44:50.897Z,1008.70
2018-09-27T04:45:51.144Z,1008.67
2018-09-27T04:46:51.241Z,1008.68
2018-09-27T04:47:51.371Z,1008.69
2018-09-27T04:48:51.619Z,1008.63
2018-09-27T04:49:51.696Z,1008.66
2018-09-27T04:52:41.176Z,1008.68
2018-09-27T04:53:34.230Z,1008.69
2018-09-27T04:54:34.462Z,1008.70
2018-09-27T04:55:34.541Z,1008.67
2018-09-27T04:56:42.669Z,1008.73
2018-09-27T04:57:34.837Z,1008.66
2018-09-27T04:58:34.986Z,1008.63
2018-09-27T04:59:35.148Z,1008.66
2018-09-27T05:00:35.339Z,1008.65
2018-09-27T05:01:35.500Z,1008.61
2018-09-27T05:02:35.659Z,1008.61
2018-09-27T05:03:35.833Z,1008.65
2018-09-27T05:04:35.997Z,1008.62
2018-09-27T05:05:36.232Z,1008.64
2018-09-27T05:06:36.959Z,1008.63
2018-09-27T05:07:36.487Z,1008.64
2018-09-27T05:08:36.645Z,1008.67
2018-09-27T05:09:36.861Z,1008.69
2018-09-27T05:10:36.979Z,1008.69
2018-09-27T05:13:09.532Z,1008.67
2018-09-27T05:14:09.691Z,1008.70
2018-09-27T05:15:09.867Z,1008.70
2018-09-27T05:16:10.031Z,1008.65
2018-09-27T05:17:10.193Z,1008.65
2018-09-27T05:18:10.355Z,1008.70
2018-09-27T05:19:10.517Z,1008.71
2018-09-27T05:20:10.690Z,1008.75
2018-09-27T05:21:10.912Z,1008.74
2018-09-27T05:22:11.061Z,1008.74
2018-09-27T05:23:11.222Z,1008.74
2018-09-27T05:24:11.385Z,1008.72
2018-09-27T05:25:11.551Z,1008.71
2018-09-27T05:26:11.710Z,1008.77
2018-09-27T05:27:11.961Z,1008.76
2018-09-27T05:29:44.157Z,1008.73
2018-09-27T05:30:44.317Z,1008.76
2018-09-27T05:31:44.523Z,1008.72
2018-09-27T05:32:44.687Z,1008.76
2018-09-27T05:33:44.847Z,1008.71
2018-09-27T05:34:45.006Z,1008.75
2018-09-27T05:35:45.171Z,1008.81
2018-09-27T05:36:45.335Z,1008.80
2018-09-27T05:37:45.521Z,1008.75
2018-09-27T05:38:45.672Z,1008.73
2018-09-27T05:39:45.835Z,1008.76
2018-09-27T05:40:46.001Z,1008.79
2018-09-27T05:41:46.201Z,1008.77
2018-09-27T05:42:46.366Z,1008.76
2018-09-27T05:43:46.554Z,1008.78
2018-09-27T05:46:28.764Z,1008.76
2018-09-27T05:47:28.928Z,1008.73
2018-09-27T05:48:29.093Z,1008.74
2018-09-27T05:49:29.252Z,1008.75
2018-09-27T05:50:29.416Z,1008.74
2018-09-27T05:51:29.595Z,1008.72
2018-09-27T05:52:37.154Z,1008.67
2018-09-27T05:53:29.930Z,1008.66
2018-09-27T05:54:30.095Z,1008.67
2018-09-27T05:55:30.277Z,1008.67
2018-09-27T05:56:30.450Z,1008.68
2018-09-27T05:57:31.392Z,1008.70
2018-09-27T05:58:30.748Z,1008.67
2018-09-27T05:59:38.869Z,1008.69
2018-09-27T06:00:31.026Z,1008.72
2018-09-27T06:01:31.207Z,1008.70
2018-09-27T06:02:31.340Z,1008.70
2018-09-27T06:03:31.518Z,1008.75
2018-09-27T06:04:31.667Z,1008.70
2018-09-27T06:05:31.847Z,1008.66
2018-09-27T06:06:32.145Z,1008.69
2018-09-27T06:07:32.310Z,1008.68
2018-09-27T06:08:32.418Z,1008.71
2018-09-27T06:09:32.627Z,1008.69
2018-09-27T06:12:15.267Z,1008.61
2018-09-27T06:13:14.914Z,1008.65
2018-09-27T06:14:15.079Z,1008.61
2018-09-27T06:15:23.217Z,1008.64
2018-09-27T06:16:15.449Z,1008.61
2018-09-27T06:17:15.603Z,1008.63
2018-09-27T06:18:15.772Z,1008.61
2018-09-27T06:19:15.962Z,1008.64
2018-09-27T06:20:16.103Z,1008.66
2018-09-27T06:21:16.270Z,1008.65
2018-09-27T06:22:24.408Z,1008.67
2018-09-27T06:23:16.561Z,1008.65
2018-09-27T06:24:16.730Z,1008.66
2018-09-27T06:25:16.890Z,1008.65
2018-09-27T06:26:17.891Z,1008.61
2018-09-27T06:27:17.179Z,1008.59
2018-09-27T06:28:17.342Z,1008.59
2018-09-27T06:29:17.508Z,1008.60
2018-09-27T06:30:17.677Z,1008.60
2018-09-27T06:31:17.856Z,1008.59
2018-09-27T06:32:18.817Z,1008.60
2018-09-27T06:33:18.142Z,1008.62
2018-09-27T06:34:18.305Z,1008.62
2018-09-27T06:35:18.472Z,1008.63
2018-09-27T06:36:18.626Z,1008.63
2018-09-27T06:37:18.785Z,1008.63
2018-09-27T06:39:51.507Z,1008.55
2018-09-27T06:40:51.702Z,1008.65
2018-09-27T06:41:51.829Z,1008.64
2018-09-27T06:42:51.987Z,1008.65
2018-09-27T06:43:52.186Z,1008.65
2018-09-27T06:44:52.377Z,1008.69
2018-09-27T06:45:52.566Z,1008.66
2018-09-27T06:46:52.722Z,1008.66
2018-09-27T06:47:54.569Z,1008.68
2018-09-27T06:48:53.149Z,1008.67
2018-09-27T06:49:53.142Z,1008.64
2018-09-27T06:50:55.067Z,1008.68
2018-09-27T06:51:53.481Z,1008.61
2018-09-27T06:52:53.637Z,1008.64
2018-09-27T06:53:53.802Z,1008.63
2018-09-27T06:56:26.408Z,1008.66
2018-09-27T06:57:26.520Z,1008.65
2018-09-27T06:58:26.684Z,1008.65
2018-09-27T06:59:26.848Z,1008.62
2018-09-27T07:00:27.008Z,1008.60
2018-09-27T07:01:27.211Z,1008.65
2018-09-27T07:02:27.325Z,1008.67
2018-09-27T07:03:27.484Z,1008.68
2018-09-27T07:04:27.644Z,1008.67
2018-09-27T07:05:27.819Z,1008.70
2018-09-27T07:06:27.961Z,1008.65
2018-09-27T07:07:28.122Z,1008.71
2018-09-27T07:08:28.375Z,1008.64
2018-09-27T07:09:28.457Z,1008.65
2018-09-27T07:10:28.616Z,1008.69
2018-09-27T07:13:00.918Z,1008.63
2018-09-27T07:15:32.675Z,1008.84
2018-09-27T07:16:32.830Z,1008.72
2018-09-27T07:17:33.005Z,1008.62
2018-09-27T07:18:33.176Z,1008.64
2018-09-27T07:19:33.334Z,1008.68
2018-09-27T07:20:41.189Z,1008.65
2018-09-27T07:21:33.713Z,1008.70
2018-09-27T07:22:33.856Z,1008.88
2018-09-27T07:23:34.029Z,1008.85
2018-09-27T07:24:34.203Z,1009.09
2018-09-27T07:25:34.356Z,1009.10
2018-09-27T07:26:34.556Z,1009.00
2018-09-27T07:27:34.680Z,1008.72
2018-09-27T07:28:34.833Z,1008.88
2018-09-27T07:29:34.996Z,1008.96
2018-09-27T07:30:35.202Z,1009.15
2018-09-27T07:31:35.365Z,1009.20
2018-09-27T07:32:35.606Z,1009.27
2018-09-27T07:33:35.726Z,1009.23
2018-09-27T07:34:43.867Z,1009.24
2018-09-27T07:35:36.008Z,1009.01
2018-09-27T07:36:36.195Z,1008.81
2018-09-27T07:37:36.343Z,1008.78
2018-09-27T07:38:36.568Z,1008.90
2018-09-27T07:39:36.662Z,1008.87
2018-09-27T07:40:36.858Z,1008.95
2018-09-27T07:41:37.005Z,1008.89
2018-09-27T07:42:37.194Z,1009.36
2018-09-27T07:43:37.327Z,1009.39
2018-09-27T07:44:37.533Z,1009.44
2018-09-27T07:47:10.354Z,1009.38
2018-09-27T07:48:09.894Z,1009.40
2018-09-27T07:49:10.068Z,1009.40
2018-09-27T07:50:10.235Z,1009.05
2018-09-27T07:51:10.418Z,1008.82
2018-09-27T07:52:10.567Z,1008.92
2018-09-27T07:53:10.738Z,1008.68
2018-09-27T07:54:10.943Z,1008.58
2018-09-27T07:55:11.072Z,1008.56
2018-09-27T07:56:11.246Z,1008.61
2018-09-27T07:58:44.241Z,1008.90
2018-09-27T07:59:43.659Z,1008.62
2018-09-27T08:00:43.850Z,1008.60
2018-09-27T08:01:44.000Z,1008.61
2018-09-27T08:02:44.248Z,1008.50
2018-09-27T08:03:44.337Z,1008.56
2018-09-27T08:04:44.507Z,1008.50
2018-09-27T08:05:46.562Z,1008.51
2018-09-27T08:06:44.860Z,1008.43
2018-09-27T08:07:45.994Z,1008.47
2018-09-27T08:08:45.263Z,1008.40
2018-09-27T08:09:45.364Z,1008.42
2018-09-27T08:10:45.531Z,1008.44
2018-09-27T08:11:45.765Z,1008.41
2018-09-27T08:12:45.904Z,1008.38
2018-09-27T08:15:18.378Z,1008.34
2018-09-27T08:16:18.667Z,1008.29
2018-09-27T08:17:18.752Z,1008.36
2018-09-27T08:18:18.884Z,1008.36
2018-09-27T08:19:19.056Z,1008.34
2018-09-27T08:20:19.258Z,1008.30
2018-09-27T08:21:19.561Z,1008.30
2018-09-27T08:22:19.568Z,1008.23
2018-09-27T08:23:19.737Z,1008.26
2018-09-27T08:24:19.905Z,1008.27
2018-09-27T08:25:20.074Z,1008.27
2018-09-27T08:26:20.251Z,1008.26
2018-09-27T08:27:20.415Z,1008.21
2018-09-27T08:28:20.580Z,1008.27
2018-09-27T08:29:20.759Z,1008.25
2018-09-27T08:33:11.338Z,1008.13
2018-09-27T08:34:11.510Z,1008.13
2018-09-27T08:35:11.677Z,1008.14
2018-09-27T08:36:11.847Z,1008.12
2018-09-27T08:37:12.016Z,1008.13
2018-09-27T08:38:12.185Z,1008.11
2018-09-27T08:39:12.360Z,1008.10
2018-09-27T08:40:12.526Z,1008.12
2018-09-27T08:41:12.688Z,1008.12
2018-09-27T08:42:14.525Z,1008.09
2018-09-27T08:43:13.006Z,1008.09
2018-09-27T08:44:13.172Z,1008.13
2018-09-27T08:45:13.641Z,1008.09
2018-09-27T08:46:13.514Z,1008.10
2018-09-27T08:47:13.701Z,1008.13
2018-09-27T08:49:55.960Z,1008.08
2018-09-27T08:50:56.126Z,1008.04
2018-09-27T08:51:56.288Z,1008.03
2018-09-27T08:52:56.468Z,1008.02
2018-09-27T08:53:56.641Z,1008.02
2018-09-27T08:54:56.904Z,1008.01
2018-09-27T08:55:57.116Z,1007.95
2018-09-27T08:56:57.234Z,1007.92
2018-09-27T08:57:57.415Z,1007.93
2018-09-27T08:58:57.584Z,1007.89
2018-09-27T08:59:57.776Z,1007.90
2018-09-27T09:00:57.923Z,1007.89
2018-09-27T09:01:58.091Z,1007.78
2018-09-27T09:02:58.265Z,1007.79
2018-09-27T09:04:06.077Z,1007.79
2018-09-27T09:04:58.609Z,1007.77
2018-09-27T09:05:58.751Z,1007.74
2018-09-27T09:06:58.930Z,1007.76
2018-09-27T09:07:59.079Z,1007.72
2018-09-27T09:08:59.354Z,1007.71
2018-09-27T09:09:59.354Z,1007.68
2018-09-27T09:10:59.640Z,1007.67
2018-09-27T09:11:59.648Z,1007.65
2018-09-27T09:12:59.797Z,1007.63
2018-09-27T09:13:59.964Z,1007.60
2018-09-27T09:16:42.225Z,1007.55
2018-09-27T09:17:42.409Z,1007.56
2018-09-27T09:18:42.572Z,1007.52
2018-09-27T09:19:42.770Z,1007.53
2018-09-27T09:20:42.918Z,1007.55
2018-09-27T09:21:43.124Z,1007.49
2018-09-27T09:22:43.249Z,1007.53
2018-09-27T09:23:43.419Z,1007.48
2018-09-27T09:24:43.662Z,1007.44
2018-09-27T09:25:43.776Z,1007.43
2018-09-27T09:26:43.936Z,1007.39
2018-09-27T09:27:44.218Z,1007.42
2018-09-27T09:28:44.254Z,1007.37
2018-09-27T09:29:52.419Z,1007.36
2018-09-27T09:30:44.536Z,1007.40
2018-09-27T09:31:44.726Z,1007.36
2018-09-27T09:32:44.892Z,1007.38
2018-09-27T09:33:45.165Z,1007.37
2018-09-27T09:34:45.808Z,1007.37
2018-09-27T09:35:45.357Z,1007.41
2018-09-27T09:36:45.521Z,1007.38
2018-09-27T09:37:45.691Z,1007.35
2018-09-27T09:38:45.858Z,1007.37
2018-09-27T09:39:46.747Z,1007.37
2018-09-27T09:40:46.176Z,1007.37
2018-09-27T09:41:46.346Z,1007.36
2018-09-27T09:42:46.513Z,1007.29
2018-09-27T09:43:46.684Z,1007.28
2018-09-27T09:44:46.870Z,1007.27
2018-09-27T09:47:19.127Z,1007.25
2018-09-27T09:48:19.297Z,1007.23
2018-09-27T09:49:19.462Z,1007.22
2018-09-27T09:50:19.629Z,1007.24
2018-09-27T09:51:19.783Z,1007.23
2018-09-27T09:52:19.973Z,1007.24
2018-09-27T09:53:20.139Z,1007.27
2018-09-27T09:54:20.306Z,1007.23
2018-09-27T09:55:20.472Z,1007.26
2018-09-27T09:56:20.633Z,1007.20
2018-09-27T09:57:20.802Z,1007.16
2018-09-27T09:58:20.974Z,1007.16
2018-09-27T09:59:21.179Z,1007.09
2018-09-27T10:00:22.196Z,1007.08
2018-09-27T10:01:29.151Z,1007.10
2018-09-27T10:02:21.700Z,1007.15
2018-09-27T10:03:21.858Z,1007.14
2018-09-27T10:04:22.021Z,1007.08
2018-09-27T10:05:22.193Z,1007.11
2018-09-27T10:06:22.366Z,1007.04
2018-09-27T10:07:22.548Z,1007.07
2018-09-27T10:08:22.721Z,1007.10
2018-09-27T10:09:22.896Z,1007.09
2018-09-27T10:10:23.069Z,1007.03
2018-09-27T10:11:23.242Z,1007.01
2018-09-27T10:14:07.153Z,1006.97
2018-09-27T10:15:07.332Z,1006.92
2018-09-27T10:16:07.508Z,1006.88
2018-09-27T10:17:07.669Z,1006.85
2018-09-27T10:18:07.828Z,1006.83
2018-09-27T10:19:08.003Z,1006.80
2018-09-27T10:20:08.166Z,1006.79
2018-09-27T10:21:08.336Z,1006.74
2018-09-27T10:22:08.563Z,1006.73
2018-09-27T10:23:08.685Z,1006.71
2018-09-27T10:24:08.840Z,1006.65
2018-09-27T10:25:09.004Z,1006.66
2018-09-27T10:26:17.141Z,1006.65
2018-09-27T10:27:09.311Z,1006.62
2018-09-27T10:28:09.465Z,1006.62
2018-09-27T10:29:17.626Z,1006.58
2018-09-27T10:30:09.768Z,1006.55
2018-09-27T10:31:10.044Z,1006.55
2018-09-27T10:32:10.126Z,1006.52
2018-09-27T10:33:10.265Z,1006.50
2018-09-27T10:35:42.079Z,1006.48
2018-09-27T10:36:42.120Z,1006.53
2018-09-27T10:37:42.303Z,1006.46
2018-09-27T10:38:42.547Z,1006.45
2018-09-27T10:39:42.570Z,1006.42
2018-09-27T10:40:42.792Z,1006.41
2018-09-27T10:41:43.658Z,1006.42
2018-09-27T10:42:43.110Z,1006.38
2018-09-27T10:43:43.328Z,1006.40
2018-09-27T10:44:43.682Z,1006.32
2018-09-27T10:45:43.683Z,1006.37
2018-09-27T10:46:51.767Z,1006.32
2018-09-27T10:47:43.928Z,1006.30
2018-09-27T10:48:44.113Z,1006.26
2018-09-27T10:49:44.275Z,1006.31
2018-09-27T10:50:44.449Z,1006.27
2018-09-27T10:51:44.616Z,1006.22
2018-09-27T10:52:44.785Z,1006.23
2018-09-27T10:53:44.944Z,1006.19
2018-09-27T10:54:45.138Z,1006.16
2018-09-27T10:55:45.302Z,1006.21
2018-09-27T10:56:45.475Z,1006.17
2018-09-27T10:57:45.643Z,1006.15
2018-09-27T10:58:45.817Z,1006.18
2018-09-27T10:59:46.062Z,1006.10
2018-09-27T11:00:46.165Z,1006.08
2018-09-27T11:03:19.497Z,1006.05
2018-09-27T11:04:18.537Z,1006.02
2018-09-27T11:05:20.469Z,1006.01
2018-09-27T11:06:20.508Z,1005.99
2018-09-27T11:07:19.028Z,1005.97
2018-09-27T11:08:19.187Z,1005.98
2018-09-27T11:09:19.688Z,1005.95
2018-09-27T11:10:19.514Z,1005.92
2018-09-27T11:13:19.894Z,1005.94
2018-09-27T11:14:19.889Z,1005.95
2018-09-27T11:15:20.028Z,1005.84
2018-09-27T11:16:20.523Z,1005.90
2018-09-27T11:17:20.491Z,1005.84
2018-09-27T11:18:20.509Z,1005.85
2018-09-27T11:19:20.717Z,1005.84
2018-09-27T11:21:21.072Z,1005.79
2018-09-27T11:22:21.103Z,1005.78
2018-09-27T11:23:29.275Z,1005.77
2018-09-27T11:25:24.757Z,1005.75
2018-09-27T11:26:22.278Z,1005.75
2018-09-27T11:28:54.099Z,1005.69
2018-09-27T11:29:54.264Z,1005.63
2018-09-27T11:30:54.433Z,1005.62
2018-09-27T11:31:54.604Z,1005.56
2018-09-27T11:32:54.845Z,1005.57
2018-09-27T11:33:54.946Z,1005.54
2018-09-27T11:34:55.109Z,1005.49
2018-09-27T11:35:55.276Z,1005.54
2018-09-27T11:36:55.445Z,1005.50
2018-09-27T11:37:55.624Z,1005.49
2018-09-27T11:38:55.774Z,1005.48
2018-09-27T11:39:55.935Z,1005.50
2018-09-27T11:40:56.128Z,1005.47
2018-09-27T11:41:56.296Z,1005.44
2018-09-27T11:42:56.506Z,1005.45
2018-09-27T11:45:28.736Z,1005.36
2018-09-27T11:46:28.891Z,1005.35
2018-09-27T11:47:29.060Z,1005.31
2018-09-27T11:48:29.234Z,1005.25
2018-09-27T11:49:29.462Z,1005.18
2018-09-27T11:50:29.575Z,1005.17
2018-09-27T11:51:29.746Z,1005.15
2018-09-27T11:52:29.914Z,1005.12
2018-09-27T11:53:30.077Z,1005.08
2018-09-27T11:54:30.250Z,1005.07
2018-09-27T11:55:30.411Z,1005.11
2018-09-27T11:56:30.589Z,1005.10
2018-09-27T11:57:30.749Z,1005.09
2018-09-27T11:58:30.917Z,1005.08
2018-09-27T11:59:31.128Z,1005.03
2018-09-27T12:02:13.394Z,1004.96
2018-09-27T12:03:13.572Z,1004.94
2018-09-27T12:04:13.747Z,1005.01
2018-09-27T12:05:22.962Z,1004.97
2018-09-27T12:06:14.201Z,1004.95
2018-09-27T12:07:14.234Z,1004.94
2018-09-27T12:08:14.415Z,1004.92
2018-09-27T12:09:14.585Z,1004.86
2018-09-27T12:10:14.844Z,1004.84
2018-09-27T12:11:14.913Z,1004.84
2018-09-27T12:12:15.142Z,1004.77
2018-09-27T12:13:23.049Z,1004.76
2018-09-27T12:14:16.439Z,1004.75
2018-09-27T12:15:15.736Z,1004.66
2018-09-27T12:16:15.912Z,1004.65
2018-09-27T12:17:16.113Z,1004.68
2018-09-27T12:18:16.405Z,1004.71
2018-09-27T12:19:16.430Z,1004.69
2018-09-27T12:20:16.624Z,1004.61
2018-09-27T12:21:16.828Z,1004.59
2018-09-27T12:22:17.042Z,1004.59
2018-09-27T12:23:17.127Z,1004.57
2018-09-27T12:24:17.287Z,1004.54
2018-09-27T12:25:25.521Z,1004.47
2018-09-27T12:26:17.628Z,1004.44
2018-09-27T12:27:17.798Z,1004.44
2018-09-27T12:28:17.975Z,1004.40
2018-09-27T12:29:18.179Z,1004.38
2018-09-27T12:30:18.320Z,1004.35
2018-09-27T12:31:18.493Z,1004.37
2018-09-27T12:32:18.661Z,1004.35
2018-09-27T12:33:18.824Z,1004.39
2018-09-27T12:34:19.027Z,1004.34
2018-09-27T12:35:19.148Z,1004.37
2018-09-27T12:36:27.251Z,1004.37
2018-09-27T12:38:19.750Z,1004.31
2018-09-27T12:39:19.993Z,1004.30
2018-09-27T12:40:20.173Z,1004.27
2018-09-27T12:41:20.249Z,1004.22
2018-09-27T12:42:20.462Z,1004.27
2018-09-27T12:43:20.726Z,1004.18
2018-09-27T12:44:20.839Z,1004.22
2018-09-27T12:46:52.488Z,1004.19
2018-09-27T12:47:52.670Z,1004.16
2018-09-27T12:48:52.870Z,1004.09
2018-09-27T12:49:52.998Z,1004.06
2018-09-27T12:50:53.205Z,1004.02
2018-09-27T12:51:53.510Z,1004.02
2018-09-27T12:52:53.569Z,1004.01
2018-09-27T12:53:53.684Z,1003.97
2018-09-27T12:54:53.848Z,1003.95
2018-09-27T12:55:54.031Z,1003.93
2018-09-27T12:56:54.233Z,1003.89
2018-09-27T12:57:54.355Z,1003.83
2018-09-27T12:58:54.523Z,1003.85
2018-09-27T12:59:54.692Z,1003.81
2018-09-27T13:00:54.965Z,1003.78
2018-09-27T13:03:37.153Z,1003.76
2018-09-27T13:04:37.315Z,1003.77
2018-09-27T13:05:37.487Z,1003.74
2018-09-27T13:06:37.658Z,1003.73
2018-09-27T13:07:37.830Z,1003.70
2018-09-27T13:08:38.085Z,1003.71
2018-09-27T13:09:38.269Z,1003.67
2018-09-27T13:10:38.328Z,1003.66
2018-09-27T13:11:45.667Z,1003.63
2018-09-27T13:12:38.787Z,1003.53
2018-09-27T13:13:38.871Z,1003.53
2018-09-27T13:16:10.721Z,1003.49
2018-09-27T13:17:10.865Z,1003.49
2018-09-27T13:18:11.035Z,1003.44
2018-09-27T13:19:11.237Z,1003.44
2018-09-27T13:20:11.427Z,1003.40